Time;durP1;ratioP1;P1;durP2;ratioP2;P2;SDS_P1;SDS_P2;PMS_P1;PMS_P2;Temp;Humidity;BMP_temperature;BMP_pressure;BME280_temperature;BME280_humidity;BME280_pressure;Samples;Min_cycle;Max_cycle;Signal;HPM_P1;HPM_P2
2021/12/07 00:00:40;;;;;;;;;1.50;0.50;;;;;21.81;37.36;100882.81;5075845;27;51870;-43
2021/12/07 00:03:06;;;;;;;;;1.75;1.75;;;;;21.80;38.02;100883.03;5090797;27;52303;-42
2021/12/07 00:05:31;;;;;;;;;3.00;1.00;;;;;21.78;38.11;100897.06;5095070;27;51113;-44
2021/12/07 00:07:57;;;;;;;;;1.00;1.00;;;;;21.76;37.54;100906.63;5093234;27;50993;-45
2021/12/07 00:10:22;;;;;;;;;1.75;0.75;;;;;21.75;38.02;100916.81;5092684;27;51667;-46
2021/12/07 00:12:48;;;;;;;;;0.50;0.50;;;;;21.73;38.07;100905.16;5076960;27;50955;-44
2021/12/07 00:15:20;;;;;;;;;1.50;0.75;;;;;21.72;37.92;100909.00;5049225;27;51040;-43
2021/12/07 00:17:46;;;;;;;;;1.75;1.75;;;;;21.70;37.75;100899.28;5035221;28;51086;-47
2021/12/07 00:20:15;;;;;;;;;0.25;0.25;;;;;21.69;38.08;100906.72;5038470;28;51560;-49
2021/12/07 00:22:42;;;;;;;;;1.00;1.00;;;;;21.67;37.77;100900.56;5033265;28;51425;-43
2021/12/07 00:25:08;;;;;;;;;2.00;1.00;;;;;21.65;37.62;100891.69;5054428;28;50965;-43
2021/12/07 00:27:34;;;;;;;;;0.75;0.25;;;;;21.64;37.70;100890.00;5043949;28;51053;-45
2021/12/07 00:30:00;;;;;;;;;1.50;1.50;;;;;21.61;37.79;100891.31;5040585;28;51811;-47
2021/12/07 00:32:36;;;;;;;;;1.00;0.50;;;;;21.61;38.01;100896.81;5036617;28;50982;-44
2021/12/07 00:37:47;;;;;;;;;1.00;1.00;;;;;21.58;37.64;100908.31;5032981;28;50935;-42
2021/12/07 00:40:17;;;;;;;;;2.00;1.00;;;;;21.57;37.86;100911.25;5043987;28;51129;-43
2021/12/07 00:42:42;;;;;;;;;0.25;0.25;;;;;21.56;37.66;100913.19;5037897;28;51311;-44
2021/12/07 00:45:08;;;;;;;;;3.00;1.50;;;;;21.54;37.97;100912.56;5052002;28;50993;-42
2021/12/07 00:47:35;;;;;;;;;0.50;0.50;;;;;21.53;38.13;100923.84;5052823;28;51080;-43
2021/12/07 00:50:00;;;;;;;;;1.00;1.00;;;;;21.52;37.59;100911.13;5035048;28;51110;-42
2021/12/07 00:52:25;;;;;;;;;2.00;1.00;;;;;21.50;38.01;100911.34;5064699;28;50968;-44
2021/12/07 00:54:51;;;;;;;;;0.00;0.00;;;;;21.49;38.47;100915.19;5055716;28;51114;-42
2021/12/07 00:57:16;;;;;;;;;0.50;0.50;;;;;21.48;37.77;100915.41;5038914;28;51047;-44
2021/12/07 00:59:42;;;;;;;;;0.50;0.50;;;;;21.47;38.15;100916.50;5033788;28;52019;-45
2021/12/07 01:02:07;;;;;;;;;2.25;0.50;;;;;21.45;38.38;100918.59;5035991;28;51057;-44
2021/12/07 01:04:33;;;;;;;;;2.00;0.00;;;;;21.43;37.83;100932.63;5030172;28;51166;-42
2021/12/07 01:07:06;;;;;;;;;1.00;1.00;;;;;21.43;38.02;100927.09;5049207;28;51094;-42
2021/12/07 01:25:52;;;;;;;;;2.00;0.00;;;;;21.33;38.06;100927.63;5087037;27;51136;-45
2021/12/07 01:36:15;;;;;;;;;1.00;0.00;;;;;21.27;38.25;100914.75;5074597;27;51041;-43
2021/12/07 02:00:13;;;;;;;;;1.00;0.00;;;;;21.18;38.51;100929.84;5083723;27;51102;-42
2021/12/07 02:02:39;;;;;;;;;1.00;0.00;;;;;21.18;38.45;100940.88;5079487;27;51000;-45
2021/12/07 02:05:05;;;;;;;;;0.00;0.00;;;;;21.16;38.03;100932.00;5080211;27;50983;-42
2021/12/07 02:07:31;;;;;;;;;0.00;0.00;;;;;21.15;37.88;100930.28;5080269;27;51033;-41
2021/12/07 02:10:03;;;;;;;;;0.00;0.00;;;;;21.14;38.40;100934.09;5081619;27;50967;-47
2021/12/07 02:12:29;;;;;;;;;3.00;0.50;;;;;21.14;38.36;100941.53;5097209;27;51057;-41
2021/12/07 02:14:54;;;;;;;;;0.00;0.00;;;;;21.12;37.97;100936.25;5093462;27;51207;-42
2021/12/07 02:17:24;;;;;;;;;0.00;0.00;;;;;21.11;38.00;100942.81;5082785;27;51662;-41
2021/12/07 02:19:49;;;;;;;;;0.75;0.00;;;;;21.11;38.30;100942.81;5087052;27;51085;-41
2021/12/07 02:22:17;;;;;;;;;0.00;0.00;;;;;21.10;38.20;100941.13;5079292;27;51076;-43
2021/12/07 02:24:42;;;;;;;;;1.00;0.00;;;;;21.09;37.97;100946.88;5079204;27;52869;-42
2021/12/07 02:27:08;;;;;;;;;0.00;0.00;;;;;21.08;38.01;100951.53;5084135;27;51138;-41
2021/12/07 02:29:33;;;;;;;;;0.00;0.00;;;;;21.08;38.08;100953.47;5077764;27;50917;-41
2021/12/07 02:32:00;;;;;;;;;0.00;0.00;;;;;21.06;38.22;100953.69;5078610;27;51810;-42
2021/12/07 02:34:26;;;;;;;;;3.25;0.75;;;;;21.04;38.42;100951.13;5097564;27;51022;-48
2021/12/07 02:36:53;;;;;;;;;0.00;0.00;;;;;21.05;38.27;100952.00;5078192;27;51029;-41
2021/12/07 02:39:29;;;;;;;;;0.00;0.00;;;;;21.04;38.48;100953.03;5070869;27;51333;-43
2021/12/07 02:41:55;;;;;;;;;0.00;0.00;;;;;21.02;38.17;100964.28;5078985;27;52025;-41
2021/12/07 02:44:20;;;;;;;;;0.75;0.75;;;;;21.01;38.68;100959.00;5073174;27;51102;-43
2021/12/07 02:46:45;;;;;;;;;1.75;1.00;;;;;21.00;38.35;100946.31;5080564;27;51242;-41
2021/12/07 02:49:11;;;;;;;;;1.00;0.00;;;;;21.00;38.47;100954.56;5078075;27;51012;-45
2021/12/07 02:51:36;;;;;;;;;0.00;0.00;;;;;20.98;38.42;100942.94;5077896;27;51068;-41
2021/12/07 02:54:03;;;;;;;;;0.75;0.00;;;;;20.98;38.35;100953.94;5080235;27;51112;-43
2021/12/07 02:56:28;;;;;;;;;0.25;0.25;;;;;20.96;38.04;100948.66;5086248;27;50842;-44
2021/12/07 02:59:00;;;;;;;;;0.00;0.00;;;;;20.97;38.32;100957.78;5077508;27;50932;-44
2021/12/07 03:01:31;;;;;;;;;0.00;0.00;;;;;20.95;38.48;100937.88;5078345;27;52110;-44
2021/12/07 03:04:10;;;;;;;;;0.00;0.00;;;;;20.94;38.13;100956.28;5078320;27;51235;-44
2021/12/07 03:07:01;;;;;;;;;0.00;0.00;;;;;20.93;38.29;100956.50;5089317;27;51101;-45
2021/12/07 03:26:02;;;;;;;;;0.00;0.00;;;;;20.86;38.45;100969.50;5076685;27;51006;-48
2021/12/07 03:28:30;;;;;;;;;1.50;0.00;;;;;20.85;38.45;100968.66;5078021;27;50912;-43
2021/12/07 03:30:55;;;;;;;;;0.00;0.00;;;;;20.85;38.43;100967.81;5094069;27;51118;-48
2021/12/07 03:33:21;;;;;;;;;0.50;0.00;;;;;20.83;38.09;100976.28;5096215;27;52207;-47
2021/12/07 03:35:46;;;;;;;;;0.00;0.00;;;;;20.82;38.33;100982.00;5077865;27;50955;-46
2021/12/07 03:38:12;;;;;;;;;0.00;0.00;;;;;20.81;38.17;100983.06;5089368;27;51221;-43
2021/12/07 03:40:38;;;;;;;;;0.00;0.00;;;;;20.82;38.05;100987.50;5090942;27;51315;-44
2021/12/07 03:43:05;;;;;;;;;0.00;0.00;;;;;20.81;38.02;100989.41;5077260;27;52015;-45
2021/12/07 03:45:32;;;;;;;;;0.00;0.00;;;;;20.79;37.98;100977.78;5079264;27;51024;-43
2021/12/07 03:47:58;;;;;;;;;0.00;0.00;;;;;20.78;38.26;100956.84;5103616;27;51089;-45
2021/12/07 03:50:24;;;;;;;;;0.00;0.00;;;;;20.78;38.03;100962.34;5077442;27;51248;-42
2021/12/07 03:52:51;;;;;;;;;0.00;0.00;;;;;20.77;38.35;100966.16;5089803;27;51818;-46
2021/12/07 03:55:17;;;;;;;;;0.00;0.00;;;;;20.78;38.35;100978.03;5094185;27;51053;-41
2021/12/07 03:57:43;;;;;;;;;0.00;0.00;;;;;20.76;38.37;100967.22;5086307;27;51097;-41
2021/12/07 04:00:15;;;;;;;;;1.00;0.00;;;;;20.75;38.58;100976.56;5081127;27;51097;-41
2021/12/07 04:02:42;;;;;;;;;0.00;0.00;;;;;20.74;38.53;100961.09;5072486;27;52066;-43
2021/12/07 04:05:13;;;;;;;;;1.25;1.00;;;;;20.74;38.53;100961.09;5086450;27;51108;-42
2021/12/07 04:07:39;;;;;;;;;1.00;1.00;;;;;20.72;38.36;100961.31;5077784;27;51126;-42
2021/12/07 04:10:06;;;;;;;;;2.00;0.00;;;;;20.72;38.21;100957.72;5077807;27;51147;-41
2021/12/07 04:12:32;;;;;;;;;0.00;0.00;;;;;20.72;38.52;100952.19;5077211;27;51807;-41
2021/12/07 04:14:58;;;;;;;;;0.00;0.00;;;;;20.71;38.20;100953.28;5078022;27;52794;-44
2021/12/07 04:17:23;;;;;;;;;0.25;0.25;;;;;20.69;38.47;100964.50;5084526;27;51086;-42
2021/12/07 04:19:49;;;;;;;;;0.00;0.00;;;;;20.70;38.41;100976.34;5078251;27;51144;-42
2021/12/07 04:22:14;;;;;;;;;0.00;0.00;;;;;20.69;38.18;100969.16;5076389;27;53696;-42
2021/12/07 04:24:39;;;;;;;;;0.00;0.00;;;;;20.68;38.31;100968.34;5077259;27;51009;-41
2021/12/07 04:27:05;;;;;;;;;2.75;1.00;;;;;20.68;38.23;100967.50;5074365;27;51257;-43
2021/12/07 04:29:31;;;;;;;;;0.00;0.00;;;;;20.67;38.53;100963.88;5082220;27;51928;-43
2021/12/07 04:31:56;;;;;;;;;1.00;0.25;;;;;20.66;38.10;100953.94;5081811;27;51867;-42
2021/12/07 04:34:22;;;;;;;;;3.00;0.00;;;;;20.66;38.22;100973.22;5086199;27;51005;-44
2021/12/07 04:36:47;;;;;;;;;1.25;0.25;;;;;20.65;38.40;100967.94;5088721;27;51055;-43
2021/12/07 04:39:13;;;;;;;;;0.00;0.00;;;;;20.65;37.72;100970.69;5086051;27;50965;-43
2021/12/07 04:41:42;;;;;;;;;0.00;0.00;;;;;20.64;37.42;100974.50;5077101;27;51603;-42
2021/12/07 04:44:07;;;;;;;;;0.50;0.00;;;;;20.63;37.61;100972.78;5099690;27;50956;-41
2021/12/07 04:46:39;;;;;;;;;1.00;0.00;;;;;20.61;36.87;100969.41;5071145;27;51146;-44
2021/12/07 04:59:35;;;;;;;;;0.25;0.25;;;;;20.48;36.24;100964.84;5085786;27;51109;-42
2021/12/07 05:02:00;;;;;;;;;0.00;0.00;;;;;20.44;35.95;100967.19;5076786;27;51160;-43
2021/12/07 05:04:30;;;;;;;;;1.00;1.00;;;;;20.43;35.78;100964.66;5076589;27;52387;-42
2021/12/07 05:07:05;;;;;;;;;1.25;1.25;;;;;20.40;35.76;100965.06;5099760;27;51157;-43
2021/12/07 05:10:05;;;;;;;;;0.25;0.25;;;;;20.37;35.92;100962.75;5113883;27;50937;-41
2021/12/07 05:15:43;;;;;;;;;2.25;1.75;;;;;20.31;35.78;100967.19;5043688;28;51096;-43
2021/12/07 05:39:29;;;;;;;;;3.00;1.00;;;;;20.05;35.05;100970.06;5078064;27;51255;-42
2021/12/07 05:41:56;;;;;;;;;0.75;0.75;;;;;20.05;35.17;100983.81;5085828;27;51344;-41
2021/12/07 05:44:21;;;;;;;;;3.75;2.00;;;;;20.01;35.32;100983.41;5108795;27;53911;-41
2021/12/07 05:46:47;;;;;;;;;1.75;0.50;;;;;19.99;35.02;100973.66;5083971;27;51044;-43
2021/12/07 05:49:12;;;;;;;;;3.50;2.00;;;;;19.97;35.31;100971.13;5097507;27;51133;-42
2021/12/07 05:51:38;;;;;;;;;3.25;2.25;;;;;19.96;35.34;100961.19;5080220;27;50982;-42
2021/12/07 05:54:03;;;;;;;;;4.75;2.50;;;;;19.93;35.07;100969.91;5088717;27;51076;-43
2021/12/07 05:56:29;;;;;;;;;5.25;2.00;;;;;19.92;35.03;100972.88;5079140;27;50980;-42
2021/12/07 05:58:54;;;;;;;;;2.75;1.00;;;;;19.89;35.00;100974.13;5094225;27;51416;-46
2021/12/07 06:01:19;;;;;;;;;2.75;1.75;;;;;19.86;34.85;100983.63;5075993;27;51335;-41
2021/12/07 06:03:45;;;;;;;;;3.50;1.50;;;;;19.84;35.21;100976.69;5080167;27;51193;-42
2021/12/07 06:06:10;;;;;;;;;2.50;1.50;;;;;19.84;35.13;100979.44;5077545;27;50953;-41
2021/12/07 06:08:36;;;;;;;;;1.25;1.25;;;;;19.83;35.36;100984.09;5094938;27;51261;-44
2021/12/07 06:11:01;;;;;;;;;4.25;2.00;;;;;19.86;35.58;100982.81;5092104;27;50899;-44
2021/12/07 06:13:27;;;;;;;;;1.25;1.25;;;;;19.87;35.50;100976.25;5080523;27;51180;-46
2021/12/07 06:15:52;;;;;;;;;1.00;1.00;;;;;19.88;35.71;100966.94;5073424;27;51175;-47
2021/12/07 06:18:18;;;;;;;;;1.75;1.00;;;;;19.90;35.80;100959.31;5096113;27;50834;-44
2021/12/07 06:20:43;;;;;;;;;1.75;1.75;;;;;19.94;35.62;100962.50;5083573;27;51073;-45
2021/12/07 06:23:11;;;;;;;;;0.75;0.50;;;;;19.96;36.05;100952.13;5079417;27;51919;-48
2021/12/07 06:25:36;;;;;;;;;2.00;2.00;;;;;19.97;35.96;100940.88;5087418;27;51138;-47
2021/12/07 06:28:02;;;;;;;;;3.25;3.00;;;;;20.00;36.41;100934.94;5093692;27;51295;-45
2021/12/07 06:30:28;;;;;;;;;3.50;2.00;;;;;20.05;36.27;100924.16;5076694;27;50901;-43
2021/12/07 06:32:53;;;;;;;;;6.50;2.00;;;;;20.12;36.41;100930.50;5073462;27;51129;-51
2021/12/07 06:35:19;;;;;;;;;1.75;1.75;;;;;20.22;36.35;100919.03;5074427;27;51193;-45
2021/12/07 06:37:45;;;;;;;;;6.75;2.50;;;;;20.31;36.24;100912.19;5074566;27;51232;-46
2021/12/07 06:40:12;;;;;;;;;5.25;1.75;;;;;20.39;36.52;100902.84;5072929;27;51008;-41
2021/12/07 06:42:39;;;;;;;;;4.25;2.00;;;;;20.46;36.45;100914.69;5072110;27;51198;-45
2021/12/07 06:45:11;;;;;;;;;1.75;1.25;;;;;20.53;36.47;100914.63;5081295;27;51382;-42
2021/12/07 06:47:37;;;;;;;;;2.50;1.50;;;;;20.59;37.10;100919.25;5076661;27;50935;-44
2021/12/07 06:50:05;;;;;;;;;1.50;1.00;;;;;20.64;37.25;100913.97;5102574;27;51110;-43
2021/12/07 06:52:31;;;;;;;;;2.50;1.00;;;;;20.71;37.69;100921.09;5073337;27;53616;-45
2021/12/07 06:54:58;;;;;;;;;1.75;1.00;;;;;20.80;37.66;100907.91;5093912;27;51044;-48
2021/12/07 06:57:24;;;;;;;;;1.50;1.00;;;;;20.89;37.45;100903.81;5082019;27;51133;-44
2021/12/07 06:59:50;;;;;;;;;2.00;0.75;;;;;20.96;38.06;100898.25;5088608;27;51234;-45
2021/12/07 07:02:15;;;;;;;;;1.00;1.00;;;;;21.02;38.30;100892.69;5073309;27;51728;-49
2021/12/07 07:04:40;;;;;;;;;1.25;0.75;;;;;21.07;38.03;100889.28;5084059;27;51098;-43
2021/12/07 07:07:06;;;;;;;;;2.00;0.50;;;;;21.11;38.38;100882.22;5088248;27;51091;-44
2021/12/07 07:09:31;;;;;;;;;1.00;1.00;;;;;21.18;38.00;100899.53;5073167;27;51167;-42
2021/12/07 07:11:56;;;;;;;;;1.00;1.00;;;;;21.22;37.79;100881.50;5091378;27;51831;-43
2021/12/07 07:14:22;;;;;;;;;2.00;2.00;;;;;21.26;37.68;100871.75;5083799;27;51164;-43
2021/12/07 07:16:47;;;;;;;;;3.00;2.00;;;;;21.31;38.04;100873.81;5074277;27;51504;-52
2021/12/07 07:19:13;;;;;;;;;2.00;2.00;;;;;21.36;37.77;100879.47;5080499;27;51118;-44
2021/12/07 07:21:38;;;;;;;;;2.50;2.00;;;;;21.42;38.35;100873.06;5089122;27;51717;-44
2021/12/07 07:24:04;;;;;;;;;3.00;2.00;;;;;21.45;38.31;100866.25;5075702;27;52626;-45
2021/12/07 07:26:29;;;;;;;;;1.50;1.00;;;;;21.50;37.91;100859.00;5079948;27;51079;-44
2021/12/07 07:28:54;;;;;;;;;1.25;1.25;;;;;21.55;37.70;100866.56;5094848;27;51313;-43
2021/12/07 07:31:20;;;;;;;;;2.25;1.00;;;;;21.59;38.34;100851.25;5075721;27;52399;-45
2021/12/07 07:33:45;;;;;;;;;3.50;1.75;;;;;21.63;37.81;100841.44;5091124;27;51064;-42
2021/12/07 07:36:11;;;;;;;;;3.00;3.00;;;;;21.68;37.45;100838.88;5089699;27;51453;-42
2021/12/07 07:38:36;;;;;;;;;4.00;3.00;;;;;21.72;37.74;100836.47;5077829;27;51129;-43
2021/12/07 07:41:02;;;;;;;;;3.50;3.50;;;;;21.76;37.66;100832.16;5073533;27;51618;-41
2021/12/07 07:43:29;;;;;;;;;3.75;3.00;;;;;21.79;37.36;100824.31;5074240;27;51045;-40
2021/12/07 07:45:55;;;;;;;;;2.00;2.00;;;;;21.83;36.95;100822.75;5074485;27;51261;-43
2021/12/07 07:48:22;;;;;;;;;4.75;4.00;;;;;21.86;36.76;100825.03;5074761;27;51005;-41
2021/12/07 07:50:50;;;;;;;;;3.50;3.50;;;;;21.87;36.67;100818.44;5070166;27;51104;-50
2021/12/07 07:53:15;;;;;;;;;2.75;2.75;;;;;21.93;36.51;100810.34;5072551;27;51479;-43
2021/12/07 07:55:42;;;;;;;;;6.50;3.50;;;;;21.97;36.71;100804.09;5070367;27;51977;-43
2021/12/07 07:58:08;;;;;;;;;5.00;3.25;;;;;22.04;37.02;100810.38;5100569;27;51112;-40
2021/12/07 08:00:34;;;;;;;;;5.00;3.00;;;;;22.09;36.56;100817.97;5069491;27;51028;-42
2021/12/07 08:02:59;;;;;;;;;6.25;3.75;;;;;22.14;37.10;100807.09;5071929;27;51062;-41
2021/12/07 08:05:25;;;;;;;;;5.50;2.25;;;;;22.14;36.92;100796.91;5077569;27;51097;-43
2021/12/07 08:07:51;;;;;;;;;4.50;4.00;;;;;22.16;36.47;100793.91;5080127;27;51238;-42
2021/12/07 08:10:21;;;;;;;;;4.25;4.25;;;;;22.18;36.63;100798.09;5085561;27;51545;-41
2021/12/07 08:12:48;;;;;;;;;4.00;3.00;;;;;22.18;36.18;100788.97;5081189;27;51206;-45
2021/12/07 08:15:15;;;;;;;;;3.00;3.00;;;;;22.19;36.17;100782.38;5079676;27;51232;-41
2021/12/07 08:17:40;;;;;;;;;4.00;3.00;;;;;22.20;35.84;100775.81;5075198;27;51045;-41
2021/12/07 08:20:07;;;;;;;;;5.00;3.00;;;;;22.23;36.20;100788.28;5075552;27;51872;-43
2021/12/07 08:22:32;;;;;;;;;4.00;2.75;;;;;22.23;36.07;100786.38;5085126;27;51025;-45
2021/12/07 08:24:58;;;;;;;;;3.25;2.00;;;;;22.23;36.26;100775.34;5086968;27;51920;-42
2021/12/07 08:27:26;;;;;;;;;2.25;2.25;;;;;22.23;35.82;100761.53;5092727;27;51256;-42
2021/12/07 08:29:52;;;;;;;;;3.00;2.25;;;;;22.25;35.67;100758.53;5081453;27;51998;-42
2021/12/07 08:32:17;;;;;;;;;4.25;1.50;;;;;22.25;36.00;100747.50;5074898;27;51149;-50
2021/12/07 08:34:42;;;;;;;;;4.75;2.50;;;;;22.24;35.62;100754.94;5071450;27;51038;-47
2021/12/07 08:37:08;;;;;;;;;5.00;3.25;;;;;22.18;36.07;100748.44;5098069;27;51240;-46
2021/12/07 08:39:34;;;;;;;;;3.75;2.25;;;;;22.13;35.90;100747.47;5072172;27;51947;-43
2021/12/07 08:42:02;;;;;;;;;3.75;2.75;;;;;22.05;35.49;100747.78;5082579;27;51322;-43
2021/12/07 08:44:27;;;;;;;;;4.00;4.00;;;;;21.98;35.89;100747.03;5094214;27;51134;-45
2021/12/07 08:46:52;;;;;;;;;2.75;2.75;;;;;21.89;36.22;100739.09;5086158;27;51292;-43
2021/12/07 08:49:19;;;;;;;;;3.50;2.25;;;;;21.84;35.78;100744.47;5078214;27;51140;-43
2021/12/07 08:51:45;;;;;;;;;3.75;2.25;;;;;21.77;35.76;100748.38;5077703;27;51714;-44
2021/12/07 08:54:29;;;;;;;;;5.50;4.25;;;;;21.71;35.80;100746.56;5073825;27;51157;-45
2021/12/07 09:02:03;;;;;;;;;4.00;2.00;;;;;21.52;36.12;100718.19;5076115;27;51939;-45
2021/12/07 09:04:29;;;;;;;;;5.75;3.75;;;;;21.47;36.38;100713.38;5074113;27;51609;-44
2021/12/07 09:06:55;;;;;;;;;3.50;3.50;;;;;21.42;36.36;100712.38;5075556;27;50965;-44
2021/12/07 09:09:20;;;;;;;;;4.00;3.00;;;;;21.36;36.14;100683.00;5075207;27;51561;-42
2021/12/07 09:11:46;;;;;;;;;5.00;3.00;;;;;21.32;36.65;100677.13;5089230;27;50952;-45
2021/12/07 09:14:14;;;;;;;;;5.50;5.00;;;;;21.27;36.10;100674.22;5083968;27;51365;-43
2021/12/07 09:16:43;;;;;;;;;4.00;3.00;;;;;21.22;36.22;100663.00;5073688;27;50975;-43
2021/12/07 09:19:09;;;;;;;;;3.75;3.50;;;;;21.18;36.32;100675.59;5074947;27;51852;-44
2021/12/07 09:21:35;;;;;;;;;4.00;3.25;;;;;21.13;36.41;100670.75;5073891;27;51128;-44
2021/12/07 09:24:01;;;;;;;;;5.00;3.50;;;;;21.10;36.92;100665.72;5075579;27;51089;-45
2021/12/07 09:26:27;;;;;;;;;3.00;3.00;;;;;21.07;36.72;100640.56;5078130;27;51158;-43
2021/12/07 09:28:52;;;;;;;;;2.25;2.25;;;;;21.02;36.95;100630.22;5075264;27;52163;-43
2021/12/07 09:31:18;;;;;;;;;2.00;2.00;;;;;20.97;36.24;100627.31;5075558;27;51404;-47
2021/12/07 09:33:44;;;;;;;;;2.75;2.00;;;;;20.94;36.46;100645.13;5093873;27;51212;-43
2021/12/07 09:36:12;;;;;;;;;3.00;3.00;;;;;20.92;36.54;100641.75;5080971;27;51193;-43
2021/12/07 09:38:39;;;;;;;;;2.00;2.00;;;;;20.88;37.02;100637.81;5080464;27;54290;-47
2021/12/07 09:41:08;;;;;;;;;5.50;3.25;;;;;20.85;36.76;100646.53;5088474;27;51336;-48
2021/12/07 09:43:36;;;;;;;;;5.00;3.00;;;;;20.82;36.87;100649.72;5098882;27;51109;-43
2021/12/07 09:46:03;;;;;;;;;4.00;2.00;;;;;20.78;36.87;100642.16;5083237;27;51333;-45
2021/12/07 09:48:28;;;;;;;;;3.00;2.00;;;;;20.75;36.57;100646.22;5082972;27;51743;-43
2021/12/07 09:50:54;;;;;;;;;5.00;4.25;;;;;20.72;36.62;100644.75;5074166;27;50990;-45
2021/12/07 09:53:21;;;;;;;;;3.00;3.00;;;;;20.70;36.98;100635.88;5074052;27;50982;-45
2021/12/07 09:55:48;;;;;;;;;2.50;2.50;;;;;20.66;37.18;100629.16;5083310;27;51183;-45
2021/12/07 09:58:14;;;;;;;;;2.75;2.00;;;;;20.64;36.94;100620.31;5079732;27;53909;-43
2021/12/07 10:00:40;;;;;;;;;3.00;2.50;;;;;20.62;37.16;100622.41;5079117;27;51153;-44
2021/12/07 10:03:06;;;;;;;;;3.75;2.00;;;;;20.59;36.93;100628.38;5090617;27;51097;-46
2021/12/07 10:05:34;;;;;;;;;2.00;2.00;;;;;20.58;36.59;100637.72;5078283;27;51000;-46
2021/12/07 10:08:01;;;;;;;;;3.00;2.00;;;;;20.56;37.18;100634.34;5078321;27;51015;-45
2021/12/07 10:10:33;;;;;;;;;2.00;2.00;;;;;20.53;36.65;100634.81;5087069;27;50987;-46
2021/12/07 10:12:59;;;;;;;;;2.50;2.50;;;;;20.52;37.13;100618.50;5072568;27;51123;-43
2021/12/07 10:15:25;;;;;;;;;4.00;2.25;;;;;20.49;37.00;100611.56;5077777;27;51213;-45
2021/12/07 10:18:01;;;;;;;;;4.00;2.50;;;;;20.48;36.94;100604.38;5078181;27;51241;-46
2021/12/07 10:20:41;;;;;;;;;2.75;2.75;;;;;20.45;37.01;100578.16;5093605;27;51010;-44
2021/12/07 10:23:21;;;;;;;;;2.75;2.25;;;;;20.43;36.94;100587.72;5092713;27;51152;-44
2021/12/07 10:25:49;;;;;;;;;2.00;2.00;;;;;20.41;37.10;100576.88;5095132;27;50984;-47
2021/12/07 10:28:38;;;;;;;;;2.25;2.25;;;;;20.38;37.06;100569.09;5082548;27;52692;-45
2021/12/07 10:31:15;;;;;;;;;4.25;3.00;;;;;20.35;37.00;100546.72;5088562;27;51221;-52
2021/12/07 10:33:46;;;;;;;;;3.25;3.25;;;;;20.34;37.04;100532.13;5086391;27;51329;-46
2021/12/07 10:36:14;;;;;;;;;1.75;1.75;;;;;20.33;36.93;100537.88;5093608;27;51220;-46
2021/12/07 10:38:41;;;;;;;;;2.00;2.00;;;;;20.29;36.88;100529.19;5077526;27;51106;-44
2021/12/07 10:41:10;;;;;;;;;2.00;2.00;;;;;20.29;37.19;100512.69;5087864;27;51421;-44
2021/12/07 10:43:47;;;;;;;;;1.50;1.50;;;;;20.28;37.30;100505.53;5097572;27;51110;-47
2021/12/07 10:46:35;;;;;;;;;2.75;2.75;;;;;20.26;37.06;100493.91;5091915;27;51368;-44
2021/12/07 10:49:12;;;;;;;;;4.00;3.00;;;;;20.26;37.12;100496.66;5077012;27;51946;-47
2021/12/07 10:51:38;;;;;;;;;3.00;0.75;;;;;20.23;37.33;100490.78;5078103;27;51031;-45
2021/12/07 10:54:04;;;;;;;;;2.25;2.25;;;;;20.21;37.11;100469.00;5078688;27;51202;-44
2021/12/07 10:56:36;;;;;;;;;2.00;2.00;;;;;20.19;36.97;100457.38;5077643;27;51237;-47
2021/12/07 10:59:09;;;;;;;;;3.25;3.25;;;;;20.18;37.28;100453.78;5085315;27;52343;-47
2021/12/07 11:01:42;;;;;;;;;3.00;3.00;;;;;20.16;37.14;100431.19;5095954;27;50969;-44
2021/12/07 11:04:30;;;;;;;;;2.75;2.75;;;;;20.15;37.38;100428.69;5075245;27;51139;-45
2021/12/07 11:07:05;;;;;;;;;2.50;2.50;;;;;20.13;37.27;100414.31;5077551;27;51128;-45
2021/12/07 11:09:39;;;;;;;;;5.25;2.25;;;;;20.11;37.36;100416.44;5076380;27;52234;-46
2021/12/07 11:12:11;;;;;;;;;3.00;3.00;;;;;20.10;37.01;100404.59;5092426;27;51094;-44
2021/12/07 11:14:51;;;;;;;;;4.25;3.50;;;;;20.09;37.19;100389.19;5096630;27;51378;-45
2021/12/07 11:17:23;;;;;;;;;2.25;2.00;;;;;20.07;37.04;100380.31;5096928;27;51035;-43
2021/12/07 11:19:50;;;;;;;;;3.75;2.00;;;;;20.07;37.47;100371.25;5096284;27;54178;-48
2021/12/07 11:22:18;;;;;;;;;2.00;2.00;;;;;20.05;37.49;100349.47;5078962;27;51351;-45
2021/12/07 11:24:45;;;;;;;;;3.25;2.75;;;;;20.03;37.11;100346.13;5096963;27;50994;-46
2021/12/07 11:30:13;;;;;;;;;2.25;2.25;;;;;20.01;37.33;100315.28;5071099;27;51370;-43
2021/12/07 11:32:55;;;;;;;;;3.00;3.00;;;;;20.01;37.46;100308.91;5078665;27;51021;-44
2021/12/07 11:35:26;;;;;;;;;2.00;2.00;;;;;19.99;37.24;100303.66;5085676;27;51241;-45
2021/12/07 11:37:56;;;;;;;;;1.25;1.25;;;;;19.97;37.54;100294.81;5094491;27;51173;-43
2021/12/07 11:40:26;;;;;;;;;4.00;4.00;;;;;19.97;37.37;100278.31;5095640;27;51660;-45
2021/12/07 11:42:51;;;;;;;;;2.00;1.50;;;;;19.96;37.47;100265.63;5085258;27;51654;-45
2021/12/07 11:45:37;;;;;;;;;3.50;3.50;;;;;19.95;37.35;100254.88;5076937;27;51027;-45
2021/12/07 11:48:05;;;;;;;;;2.00;2.00;;;;;19.95;37.30;100263.13;5075201;27;51056;-44
2021/12/07 11:50:33;;;;;;;;;2.00;2.00;;;;;20.00;37.29;100255.84;5086508;27;51880;-45
2021/12/07 11:53:11;;;;;;;;;4.00;2.50;;;;;20.08;37.10;100239.03;5085915;27;51364;-46
2021/12/07 11:55:39;;;;;;;;;3.50;2.50;;;;;20.19;36.97;100231.88;5077655;27;51140;-45
2021/12/07 11:58:07;;;;;;;;;3.50;2.00;;;;;20.29;37.13;100223.06;5076948;27;50956;-45
2021/12/07 12:00:35;;;;;;;;;1.75;1.75;;;;;20.37;37.28;100215.31;5090042;27;51031;-44
2021/12/07 12:03:07;;;;;;;;;2.75;1.75;;;;;20.46;36.78;100205.66;5095407;27;51251;-46
2021/12/07 12:05:34;;;;;;;;;5.25;3.00;;;;;20.55;37.30;100186.91;5087327;27;51036;-45
2021/12/07 12:08:01;;;;;;;;;2.50;1.25;;;;;20.62;37.11;100179.34;5095356;27;50993;-45
2021/12/07 12:10:28;;;;;;;;;2.25;2.00;;;;;20.70;36.95;100172.66;5076572;27;52783;-45
2021/12/07 12:13:07;;;;;;;;;1.75;1.75;;;;;20.78;36.71;100175.06;5077708;27;51450;-42
2021/12/07 12:15:52;;;;;;;;;4.00;2.75;;;;;20.87;36.55;100161.75;5094415;27;51069;-45
2021/12/07 12:18:44;;;;;;;;;5.00;2.50;;;;;20.93;36.78;100155.28;5085405;27;51407;-44
2021/12/07 12:21:23;;;;;;;;;3.00;1.00;;;;;21.00;36.82;100144.97;5075107;27;52878;-44
2021/12/07 12:24:14;;;;;;;;;3.00;1.25;;;;;21.03;36.79;100125.19;5065579;27;51066;-42
2021/12/07 12:26:41;;;;;;;;;2.75;2.75;;;;;20.99;36.65;100127.63;5077830;27;51064;-44
2021/12/07 12:29:16;;;;;;;;;1.25;1.25;;;;;20.96;36.87;100130.03;5083347;27;50959;-47
2021/12/07 12:31:51;;;;;;;;;1.50;1.50;;;;;20.91;36.88;100118.91;5090414;27;51278;-47
2021/12/07 12:34:20;;;;;;;;;1.25;1.25;;;;;20.86;36.98;100108.63;5085066;27;51375;-44
2021/12/07 12:36:56;;;;;;;;;3.25;2.00;;;;;20.81;36.96;100091.16;5074431;27;50987;-45
2021/12/07 12:39:43;;;;;;;;;2.00;2.00;;;;;20.75;36.64;100069.03;5087390;27;50926;-43
2021/12/07 12:42:09;;;;;;;;;2.00;2.00;;;;;20.71;36.57;100055.97;5084859;27;51654;-43
2021/12/07 12:44:36;;;;;;;;;2.00;2.00;;;;;20.66;36.76;100045.72;5076135;27;51223;-43
2021/12/07 12:47:03;;;;;;;;;1.50;1.50;;;;;20.64;36.98;100045.13;5086051;27;51098;-46
2021/12/07 12:49:43;;;;;;;;;3.50;2.00;;;;;20.60;37.04;100035.66;5077241;27;51114;-45
2021/12/07 12:52:09;;;;;;;;;1.00;1.00;;;;;20.57;37.14;100010.56;5084619;27;51722;-46
2021/12/07 12:54:44;;;;;;;;;2.00;1.00;;;;;20.53;36.74;99993.72;5075695;27;51016;-44
2021/12/07 12:57:16;;;;;;;;;1.25;1.25;;;;;20.52;36.97;99996.69;5078001;27;51150;-46
2021/12/07 12:59:44;;;;;;;;;2.00;2.00;;;;;20.49;37.38;99981.50;5073297;27;51214;-47
2021/12/07 13:02:11;;;;;;;;;4.75;1.25;;;;;20.44;37.50;99965.75;5077460;27;51181;-45
2021/12/07 13:04:37;;;;;;;;;2.25;2.00;;;;;20.42;37.15;99967.88;5076356;27;50983;-45
2021/12/07 13:07:27;;;;;;;;;3.00;3.00;;;;;20.40;37.36;99974.66;5068712;27;51063;-44
2021/12/07 13:09:59;;;;;;;;;1.50;1.50;;;;;20.37;37.63;99964.16;5095105;27;50935;-47
2021/12/07 13:12:42;;;;;;;;;1.50;1.50;;;;;20.34;37.51;99978.41;5067565;27;51827;-46
2021/12/07 13:15:11;;;;;;;;;2.00;2.00;;;;;20.32;37.35;99962.16;5078162;27;51308;-46
2021/12/07 13:17:43;;;;;;;;;1.00;1.00;;;;;20.30;37.59;99950.53;5074385;27;51093;-48
2021/12/07 13:20:11;;;;;;;;;3.25;2.00;;;;;20.28;37.44;99951.84;5074980;27;51022;-46